Time;durP1;ratioP1;P1;durP2;ratioP2;P2;SDS_P1;SDS_P2;PMS_P1;PMS_P2;Temp;Humidity;BMP_temperature;BMP_pressure;BME280_temperature;BME280_humidity;BME280_pressure;Samples;Min_cycle;Max_cycle;Signal;HPM_P1;HPM_P2
2023/08/07 00:02:11;;;;;;;7.15;2.90;;;15.40;93.40;;;;;;5073770;28;20090;-49
2023/08/07 00:04:38;;;;;;;3.75;2.28;;;15.30;93.30;;;;;;5073556;28;20028;-47
2023/08/07 00:07:05;;;;;;;5.55;2.08;;;15.30;93.30;;;;;;5073882;28;20032;-47
2023/08/07 00:09:32;;;;;;;6.75;2.40;;;15.30;93.30;;;;;;5056256;28;20098;-47
2023/08/07 00:11:59;;;;;;;9.50;1.75;;;15.30;93.20;;;;;;5055145;28;20137;-48
2023/08/07 00:14:28;;;;;;;3.78;2.55;;;15.30;93.20;;;;;;5073744;28;20037;-47
2023/08/07 00:16:55;;;;;;;7.97;2.65;;;15.30;93.20;;;;;;5073877;28;20040;-49
2023/08/07 00:19:22;;;;;;;4.30;2.00;;;15.30;93.10;;;;;;5073045;28;20337;-47
2023/08/07 00:21:48;;;;;;;4.88;2.83;;;15.30;93.20;;;;;;5072914;28;20669;-47
2023/08/07 00:24:14;;;;;;;7.93;2.63;;;15.30;93.20;;;;;;5073487;28;20038;-47
2023/08/07 00:26:41;;;;;;;4.60;3.05;;;15.30;93.30;;;;;;5073630;28;20318;-47
2023/08/07 00:29:08;;;;;;;5.55;2.80;;;15.30;93.40;;;;;;5072549;28;20029;-48
2023/08/07 00:31:34;;;;;;;4.93;2.78;;;15.30;93.50;;;;;;5072912;28;20037;-47
2023/08/07 00:34:02;;;;;;;7.65;2.72;;;15.30;93.60;;;;;;5069749;28;20081;-47
2023/08/07 00:36:34;;;;;;;6.13;3.13;;;15.40;93.60;;;;;;5071707;28;20047;-48
2023/08/07 00:39:03;;;;;;;9.68;3.13;;;15.40;93.60;;;;;;5073548;28;20016;-51
2023/08/07 00:41:30;;;;;;;8.03;2.53;;;15.40;93.50;;;;;;5073180;28;20028;-48
2023/08/07 00:43:57;;;;;;;7.05;3.90;;;15.40;93.30;;;;;;5072511;28;20353;-49
2023/08/07 00:46:24;;;;;;;5.85;2.63;;;15.40;93.00;;;;;;5055499;28;20028;-48
2023/08/07 00:48:55;;;;;;;5.78;2.42;;;15.40;92.90;;;;;;5073178;28;20017;-48
2023/08/07 00:51:23;;;;;;;10.73;2.88;;;15.50;92.80;;;;;;5073154;28;20093;-48
2023/08/07 00:53:49;;;;;;;7.22;2.25;;;15.40;92.60;;;;;;5072524;28;20036;-48
2023/08/07 00:56:16;;;;;;;7.47;2.42;;;15.50;92.50;;;;;;5072793;28;20165;-48
2023/08/07 00:58:44;;;;;;;8.25;3.28;;;15.50;92.50;;;;;;5054916;28;20121;-49
2023/08/07 01:01:11;;;;;;;5.80;2.65;;;15.50;92.30;;;;;;5072059;28;20112;-50
2023/08/07 01:03:38;;;;;;;6.78;2.65;;;15.50;92.20;;;;;;5055255;28;20089;-49
2023/08/07 01:06:06;;;;;;;4.15;2.25;;;15.50;92.10;;;;;;5072648;28;20341;-49
2023/08/07 01:08:33;;;;;;;7.60;3.00;;;15.50;92.10;;;;;;5072908;28;20055;-50
2023/08/07 01:11:26;;;;;;;5.20;2.15;;;15.50;92.00;;;;;;5072072;28;20090;-48
2023/08/07 01:14:28;;;;;;;7.18;2.72;;;15.60;92.10;;;;;;5072498;28;20028;-49
2023/08/07 01:17:17;;;;;;;6.57;2.55;;;15.60;92.10;;;;;;5055005;28;20120;-49
2023/08/07 01:19:44;;;;;;;10.88;3.58;;;15.70;92.40;;;;;;5051432;28;20033;-49
2023/08/07 01:22:16;;;;;;;7.45;3.33;;;15.70;92.70;;;;;;5052445;28;20029;-50
2023/08/07 01:24:45;;;;;;;6.93;3.15;;;15.70;92.90;;;;;;5035253;28;20039;-50
2023/08/07 01:27:36;;;;;;;15.25;3.63;;;15.80;93.10;;;;;;5052522;28;20401;-51
2023/08/07 01:30:28;;;;;;;12.27;3.72;;;15.80;93.30;;;;;;5063390;28;20033;-49
2023/08/07 01:33:22;;;;;;;11.70;3.80;;;15.90;93.40;;;;;;5054807;28;20353;-49
2023/08/07 01:35:55;;;;;;;6.50;3.10;;;15.90;93.50;;;;;;5053483;28;20045;-49
2023/08/07 01:38:25;;;;;;;10.80;4.07;;;15.90;93.70;;;;;;5072060;28;20016;-51
2023/08/07 01:40:53;;;;;;;9.48;3.40;;;15.90;93.70;;;;;;5071868;28;20411;-48
2023/08/07 01:43:20;;;;;;;13.20;4.07;;;15.90;93.70;;;;;;5072248;28;20342;-48
2023/08/07 01:45:47;;;;;;;9.75;3.58;;;15.90;93.80;;;;;;5071974;28;20020;-50
2023/08/07 01:48:13;;;;;;;9.15;3.47;;;15.90;93.80;;;;;;5054371;28;20021;-49
2023/08/07 01:50:39;;;;;;;8.75;3.38;;;15.90;93.90;;;;;;5071423;28;20063;-51
2023/08/07 01:53:05;;;;;;;11.82;4.45;;;15.90;94.00;;;;;;5071168;28;20052;-49
2023/08/07 01:55:31;;;;;;;11.13;3.78;;;15.90;94.00;;;;;;5071641;28;20029;-49
2023/08/07 01:57:58;;;;;;;12.32;4.97;;;15.90;94.10;;;;;;5070926;28;20078;-50
2023/08/07 02:00:25;;;;;;;14.20;4.30;;;16.00;94.10;;;;;;5053912;28;20068;-50
2023/08/07 02:02:52;;;;;;;13.90;5.45;;;16.00;94.20;;;;;;5053780;28;20032;-49
2023/08/07 02:05:19;;;;;;;15.20;4.70;;;16.00;94.10;;;;;;5071371;28;20097;-49
2023/08/07 02:07:45;;;;;;;13.02;5.40;;;16.00;94.20;;;;;;5070845;28;20033;-50
2023/08/07 02:10:12;;;;;;;13.45;5.10;;;16.00;94.20;;;;;;5071543;28;20442;-50
2023/08/07 02:12:39;;;;;;;17.30;5.80;;;16.00;94.20;;;;;;5070830;28;20029;-50
2023/08/07 02:15:06;;;;;;;11.05;4.60;;;16.00;94.10;;;;;;5072114;28;20057;-49
2023/08/07 02:17:37;;;;;;;9.90;3.72;;;16.10;94.00;;;;;;5072106;28;20503;-49
2023/08/07 02:20:05;;;;;;;8.43;3.88;;;16.00;93.90;;;;;;5072318;28;20032;-50
2023/08/07 02:22:31;;;;;;;15.65;4.35;;;16.00;93.70;;;;;;5071443;28;20074;-52
2023/08/07 02:25:00;;;;;;;11.52;4.07;;;16.00;93.50;;;;;;5071976;28;20033;-50
2023/08/07 02:27:27;;;;;;;12.38;3.90;;;16.00;93.30;;;;;;5071135;28;20024;-51
2023/08/07 02:29:54;;;;;;;11.35;4.65;;;16.00;93.20;;;;;;5071266;28;20078;-50
2023/08/07 02:32:21;;;;;;;6.70;3.55;;;16.00;93.10;;;;;;5054272;28;20135;-50
2023/08/07 02:34:51;;;;;;;9.27;3.40;;;16.00;93.10;;;;;;5071859;28;20052;-52
2023/08/07 02:37:17;;;;;;;9.63;3.53;;;15.90;92.90;;;;;;5071696;28;20078;-52
2023/08/07 02:39:46;;;;;;;10.60;3.42;;;15.90;93.00;;;;;;5071073;28;20774;-51
2023/08/07 02:42:13;;;;;;;15.93;3.90;;;15.90;92.80;;;;;;5073006;28;20040;-50
2023/08/07 02:44:40;;;;;;;13.40;5.15;;;15.90;92.80;;;;;;5075570;28;20469;-49
2023/08/07 02:47:09;;;;;;;8.20;4.20;;;15.90;92.70;;;;;;5074961;28;20497;-51
2023/08/07 02:49:35;;;;;;;10.93;3.60;;;15.90;92.70;;;;;;5075273;28;20028;-50
2023/08/07 02:52:02;;;;;;;11.77;3.95;;;15.90;92.70;;;;;;5057151;28;20039;-50
2023/08/07 02:54:30;;;;;;;8.82;4.00;;;15.90;92.80;;;;;;5057428;28;20108;-49
2023/08/07 02:56:57;;;;;;;13.40;3.83;;;15.90;92.70;;;;;;5057529;28;20024;-50
2023/08/07 02:59:24;;;;;;;8.85;3.50;;;15.80;92.70;;;;;;5056913;28;20032;-53
2023/08/07 03:01:51;;;;;;;15.55;3.47;;;15.80;92.50;;;;;;5075081;28;20048;-50
2023/08/07 03:04:17;;;;;;;15.57;4.82;;;15.80;92.40;;;;;;5074198;28;20024;-49
2023/08/07 03:06:44;;;;;;;12.07;3.58;;;15.80;92.20;;;;;;5075044;28;20032;-49
2023/08/07 03:09:13;;;;;;;9.20;4.15;;;15.90;92.00;;;;;;5074490;28;20028;-49
2023/08/07 03:11:40;;;;;;;11.47;3.30;;;15.80;91.70;;;;;;5057228;28;20067;-51
2023/08/07 03:14:06;;;;;;;11.13;3.78;;;15.90;91.60;;;;;;5074776;28;20024;-49
2023/08/07 03:16:35;;;;;;;9.80;3.60;;;15.90;91.60;;;;;;5057320;28;20066;-49
2023/08/07 03:19:01;;;;;;;10.57;3.97;;;15.90;91.70;;;;;;5056038;28;20500;-49
2023/08/07 03:21:27;;;;;;;14.38;4.28;;;15.90;91.40;;;;;;5057109;28;20119;-49
2023/08/07 03:23:53;;;;;;;9.13;3.05;;;15.80;91.20;;;;;;5074615;28;20029;-49
2023/08/07 03:26:19;;;;;;;9.50;3.70;;;15.80;90.70;;;;;;5056852;28;20091;-49
2023/08/07 03:28:46;;;;;;;8.80;3.40;;;15.80;90.50;;;;;;5073707;28;20043;-49
2023/08/07 03:31:16;;;;;;;9.13;3.05;;;15.80;90.60;;;;;;5074636;28;20021;-49
2023/08/07 03:33:42;;;;;;;;;;;15.80;90.80;;;;;;5074298;28;20040;-49
2023/08/07 03:36:09;;;;;;;14.75;3.25;;;15.80;91.00;;;;;;5074300;28;19978;-48
2023/08/07 03:38:36;;;;;;;17.38;3.10;;;15.90;91.10;;;;;;5074768;28;20460;-48
2023/08/07 03:41:04;;;;;;;7.40;2.40;;;15.70;90.40;;;;;;5073639;28;20036;-46
2023/08/07 03:43:31;;;;;;;11.75;3.17;;;15.60;90.30;;;;;;5056778;28;20401;-50
2023/08/07 03:45:57;;;;;;;12.25;2.53;;;15.50;90.20;;;;;;5074332;28;20021;-46
2023/08/07 03:48:24;;;;;;;16.65;2.35;;;15.40;90.80;;;;;;5055598;28;20017;-45
2023/08/07 03:50:51;;;;;;;15.23;2.97;;;15.10;90.80;;;;;;5073898;28;20224;-44
2023/08/07 03:53:18;;;;;;;11.40;3.60;;;15.00;91.10;;;;;;5073858;28;20036;-44
2023/08/07 03:55:52;;;;;;;10.00;2.63;;;15.00;91.30;;;;;;5073138;28;20033;-44
2023/08/07 03:58:22;;;;;;;9.68;2.40;;;14.90;91.30;;;;;;5056212;28;20556;-45
2023/08/07 04:00:51;;;;;;;9.93;2.13;;;14.80;91.30;;;;;;5074129;28;20043;-45
2023/08/07 04:03:21;;;;;;;7.35;2.10;;;14.70;91.30;;;;;;5054982;28;20050;-43
2023/08/07 04:05:54;;;;;;;11.38;2.95;;;14.70;91.60;;;;;;5073847;28;20641;-45
2023/08/07 04:08:22;;;;;;;5.28;1.98;;;14.60;91.60;;;;;;5073726;28;20055;-44
2023/08/07 04:11:03;;;;;;;7.85;1.98;;;14.60;91.80;;;;;;5073181;28;20025;-46
2023/08/07 04:13:31;;;;;;;6.22;2.45;;;14.50;91.90;;;;;;5056079;28;20068;-45
2023/08/07 04:15:58;;;;;;;10.93;1.90;;;14.50;92.00;;;;;;5073702;28;20028;-46
2023/08/07 04:18:30;;;;;;;6.90;1.80;;;14.60;92.20;;;;;;5073087;28;20552;-45
2023/08/07 04:21:01;;;;;;;7.25;1.90;;;14.60;92.10;;;;;;5073577;28;20108;-45
2023/08/07 04:23:28;;;;;;;8.38;1.90;;;14.60;92.00;;;;;;5073458;28;20025;-45
2023/08/07 04:25:55;;;;;;;6.55;2.60;;;14.60;92.10;;;;;;5072790;28;20028;-46
2023/08/07 04:28:22;;;;;;;10.25;2.42;;;14.60;92.40;;;;;;5073491;28;20035;-50
2023/08/07 04:30:52;;;;;;;4.05;1.83;;;14.70;92.70;;;;;;5073211;28;20052;-47
2023/08/07 04:33:19;;;;;;;;;;;14.70;92.80;;;;;;5073093;28;20410;-46
2023/08/07 04:35:48;;;;;;;14.40;3.80;;;14.70;92.90;;;;;;5073045;28;20452;-45
2023/08/07 04:38:16;;;;;;;12.57;3.20;;;14.70;92.90;;;;;;5072771;28;20052;-47
2023/08/07 04:40:47;;;;;;;13.40;3.92;;;14.70;93.10;;;;;;5073171;28;20116;-45
2023/08/07 04:43:17;;;;;;;15.68;4.30;;;14.80;93.40;;;;;;5073196;28;20028;-45
2023/08/07 04:45:44;;;;;;;12.32;3.50;;;14.90;93.60;;;;;;5073051;28;20054;-45
2023/08/07 04:48:12;;;;;;;12.15;5.07;;;14.90;93.60;;;;;;5072670;28;20484;-45
2023/08/07 04:50:38;;;;;;;13.48;4.32;;;14.90;93.40;;;;;;5073252;28;20388;-46
2023/08/07 04:53:05;;;;;;;14.15;4.35;;;14.90;93.10;;;;;;5072940;28;20473;-47
2023/08/07 04:55:33;;;;;;;14.30;4.47;;;14.90;92.80;;;;;;5072986;28;20032;-45
2023/08/07 04:58:01;;;;;;;14.48;3.92;;;14.90;92.10;;;;;;5072391;28;20047;-45
2023/08/07 05:00:30;;;;;;;9.07;3.40;;;14.90;91.70;;;;;;5072974;28;20400;-45
2023/08/07 05:02:57;;;;;;;19.23;4.90;;;14.90;91.50;;;;;;5072633;28;20445;-46
2023/08/07 05:05:23;;;;;;;13.95;4.07;;;14.90;91.30;;;;;;5054305;28;20105;-46
2023/08/07 05:07:50;;;;;;;10.32;3.35;;;14.90;91.20;;;;;;5072685;28;20021;-48
2023/08/07 05:10:16;;;;;;;11.30;4.03;;;14.90;91.30;;;;;;5071618;28;20085;-46
2023/08/07 05:12:42;;;;;;;13.02;4.47;;;15.00;91.00;;;;;;5072575;28;20036;-47
2023/08/07 05:15:09;;;;;;;12.00;4.15;;;15.00;90.80;;;;;;5072602;28;20044;-48
2023/08/07 05:17:34;;;;;;;13.82;3.88;;;15.20;90.60;;;;;;5055358;28;20062;-49
2023/08/07 05:20:04;;;;;;;13.07;3.90;;;15.30;90.50;;;;;;5072233;28;20020;-50
2023/08/07 05:22:31;;;;;;;12.43;3.85;;;15.30;90.40;;;;;;5072705;28;20025;-47
2023/08/07 05:24:58;;;;;;;16.10;4.03;;;15.40;90.40;;;;;;5072510;28;20024;-48
2023/08/07 05:27:25;;;;;;;14.30;4.47;;;15.30;90.40;;;;;;5072428;28;20329;-50
2023/08/07 05:29:52;;;;;;;18.08;5.22;;;15.20;91.00;;;;;;5071944;28;20032;-47
2023/08/07 05:32:19;;;;;;;16.92;5.30;;;15.20;91.80;;;;;;5072240;28;20031;-46
2023/08/07 05:34:45;;;;;;;15.35;5.32;;;15.20;92.10;;;;;;5071355;28;20040;-45
2023/08/07 05:37:15;;;;;;;16.67;4.70;;;15.20;92.20;;;;;;5072305;28;20024;-45
2023/08/07 05:39:41;;;;;;;16.67;4.47;;;15.10;91.20;;;;;;5072391;28;20514;-45
2023/08/07 05:42:09;;;;;;;16.63;4.35;;;15.10;89.40;;;;;;5071713;28;20653;-47
2023/08/07 05:44:35;;;;;;;16.27;3.95;;;15.10;88.20;;;;;;5072261;28;20099;-46
2023/08/07 05:47:02;;;;;;;14.77;4.05;;;15.10;88.20;;;;;;5071824;28;20124;-46
2023/08/07 05:49:31;;;;;;;13.98;3.47;;;15.10;88.70;;;;;;5072541;28;20074;-46
2023/08/07 05:51:58;;;;;;;15.00;4.43;;;15.20;89.00;;;;;;5072389;28;20023;-48
2023/08/07 05:54:25;;;;;;;15.63;5.45;;;15.20;89.10;;;;;;5071596;28;20035;-47
2023/08/07 05:56:51;;;;;;;12.20;3.92;;;15.20;89.20;;;;;;5071692;28;20036;-50
2023/08/07 05:59:18;;;;;;;12.38;4.53;;;15.20;87.10;;;;;;5054468;28;20020;-49
2023/08/07 06:01:45;;;;;;;13.43;4.38;;;15.20;86.00;;;;;;5053453;28;20449;-50
2023/08/07 06:04:12;;;;;;;8.38;3.30;;;15.40;86.30;;;;;;5072211;28;20029;-52
2023/08/07 06:06:39;;;;;;;14.75;4.20;;;15.40;85.90;;;;;;5072144;28;20449;-49
2023/08/07 06:09:06;;;;;;;11.85;4.65;;;15.40;85.10;;;;;;5071459;28;20029;-52
2023/08/07 06:11:35;;;;;;;23.00;5.47;;;15.40;85.20;;;;;;5054655;28;20044;-51
2023/08/07 06:14:01;;;;;;;12.75;3.67;;;15.50;85.70;;;;;;5054413;28;20367;-53
2023/08/07 06:16:28;;;;;;;16.73;4.50;;;15.50;85.50;;;;;;5072295;28;20024;-50
2023/08/07 06:18:54;;;;;;;15.55;4.00;;;15.60;84.00;;;;;;5075435;28;20111;-47
2023/08/07 06:21:20;;;;;;;13.18;3.88;;;15.70;84.40;;;;;;5076069;28;20108;-49
2023/08/07 06:23:47;;;;;;;11.55;4.00;;;15.80;84.70;;;;;;5075847;28;20032;-48
2023/08/07 06:26:14;;;;;;;14.70;3.90;;;15.70;83.50;;;;;;5075780;28;20430;-47
2023/08/07 06:28:42;;;;;;;12.23;3.60;;;15.60;83.20;;;;;;5057363;28;20063;-50
2023/08/07 06:31:12;;;;;;;19.65;5.07;;;15.70;84.50;;;;;;5075626;28;20440;-47
2023/08/07 06:33:41;;;;;;;11.98;3.80;;;15.80;84.30;;;;;;5058070;28;20032;-49
2023/08/07 06:36:10;;;;;;;17.15;4.00;;;16.00;83.60;;;;;;5074820;28;20048;-50
2023/08/07 06:38:37;;;;;;;17.73;3.85;;;16.00;82.50;;;;;;5075676;28;20063;-47
2023/08/07 06:41:05;;;;;;;13.75;3.88;;;15.90;81.10;;;;;;5075383;28;20028;-47
2023/08/07 06:43:30;;;;;;;9.77;3.47;;;15.80;81.60;;;;;;5074671;28;20044;-46
2023/08/07 06:45:58;;;;;;;10.98;3.95;;;15.70;82.00;;;;;;5056985;28;20029;-48
2023/08/07 06:48:26;;;;;;;13.90;4.35;;;15.80;81.60;;;;;;5075567;28;20025;-47
2023/08/07 06:50:56;;;;;;;13.25;4.25;;;15.80;82.50;;;;;;5056982;28;20429;-49
2023/08/07 06:53:23;;;;;;;13.18;3.25;;;15.90;82.00;;;;;;5057956;28;20085;-50
2023/08/07 06:55:53;;;;;;;15.50;3.45;;;15.90;80.90;;;;;;5074476;28;20021;-48
2023/08/07 06:58:20;;;;;;;10.07;2.85;;;15.90;79.90;;;;;;5055062;28;20032;-46
2023/08/07 07:00:49;;;;;;;12.57;3.38;;;15.80;79.60;;;;;;5055102;28;20032;-48
2023/08/07 07:03:15;;;;;;;9.57;3.73;;;15.90;79.90;;;;;;5055128;28;20032;-47
2023/08/07 07:05:48;;;;;;;11.00;2.85;;;15.80;80.30;;;;;;5056497;28;20525;-48
2023/08/07 07:08:15;;;;;;;9.13;2.65;;;15.90;79.40;;;;;;5074801;28;20021;-47
2023/08/07 07:10:42;;;;;;;13.35;2.92;;;16.00;78.50;;;;;;5074537;28;20052;-49
2023/08/07 07:13:09;;;;;;;8.65;2.42;;;15.90;77.80;;;;;;5056274;28;20025;-47
2023/08/07 07:15:35;;;;;;;9.65;3.05;;;16.20;77.00;;;;;;5055002;28;20433;-48
2023/08/07 07:18:02;;;;;;;15.48;3.75;;;16.40;77.50;;;;;;5020845;28;20033;-49
2023/08/07 07:20:31;;;;;;;11.05;3.13;;;16.40;77.60;;;;;;5037167;28;20515;-47
2023/08/07 07:22:56;;;;;;;9.10;3.03;;;16.30;76.50;;;;;;5054807;28;20025;-48
2023/08/07 07:25:25;;;;;;;13.95;4.00;;;16.30;77.30;;;;;;5053500;28;20278;-47
2023/08/07 07:27:52;;;;;;;11.30;3.33;;;16.10;78.30;;;;;;5054281;28;20087;-51
2023/08/07 07:30:22;;;;;;;9.77;3.25;;;16.00;78.20;;;;;;5059938;28;20052;-49
2023/08/07 07:32:50;;;;;;;17.17;4.07;;;16.00;78.10;;;;;;5074739;28;20031;-50
2023/08/07 07:35:18;;;;;;;11.18;3.28;;;16.00;78.00;;;;;;5073469;28;20067;-48
2023/08/07 07:37:45;;;;;;;15.40;3.78;;;16.00;78.70;;;;;;5074364;28;20029;-47
2023/08/07 07:40:15;;;;;;;11.07;3.67;;;15.90;78.60;;;;;;5056684;28;20029;-50
2023/08/07 07:42:42;;;;;;;;;;;15.80;78.30;;;;;;5073545;28;20033;-49
2023/08/07 07:45:11;;;;;;;11.35;3.22;;;15.90;78.20;;;;;;5073873;28;19910;-48
2023/08/07 07:47:38;;;;;;;13.48;3.63;;;15.90;77.30;;;;;;5073946;28;20029;-46
2023/08/07 07:50:08;;;;;;;9.10;2.85;;;16.00;77.40;;;;;;5073057;28;20079;-47
2023/08/07 07:52:34;;;;;;;10.95;3.70;;;16.10;76.50;;;;;;5073856;28;20028;-49
2023/08/07 07:55:01;;;;;;;19.88;3.88;;;16.00;76.00;;;;;;5072528;28;20362;-48
2023/08/07 07:57:28;;;;;;;11.52;3.00;;;15.90;77.90;;;;;;5073633;28;20446;-47
2023/08/07 07:59:55;;;;;;;9.43;3.63;;;15.80;77.10;;;;;;5072787;28;20033;-46
2023/08/07 08:02:24;;;;;;;9.80;2.85;;;15.80;76.50;;;;;;5073741;28;20028;-48
2023/08/07 08:04:51;;;;;;;12.05;3.75;;;15.70;75.40;;;;;;5073572;28;20016;-50
2023/08/07 08:07:18;;;;;;;10.13;3.13;;;15.80;75.30;;;;;;5073056;28;20059;-47
2023/08/07 08:09:47;;;;;;;13.27;3.20;;;15.90;75.60;;;;;;5056156;28;20035;-47
2023/08/07 08:12:14;;;;;;;7.75;2.55;;;15.90;74.40;;;;;;5073130;28;20397;-51
2023/08/07 08:14:44;;;;;;;11.75;2.97;;;15.90;73.00;;;;;;5073695;28;20036;-47
2023/08/07 08:17:13;;;;;;;11.82;3.17;;;15.90;73.40;;;;;;5055196;28;20501;-47
2023/08/07 08:19:40;;;;;;;9.90;2.72;;;15.90;73.00;;;;;;5073734;28;20572;-46
2023/08/07 08:22:06;;;;;;;19.80;3.45;;;16.00;70.60;;;;;;5072717;28;20052;-46
2023/08/07 08:24:33;;;;;;;10.57;3.67;;;16.20;69.60;;;;;;5073490;28;20437;-45
2023/08/07 08:27:00;;;;;;;10.18;2.97;;;16.60;69.00;;;;;;5073606;28;20028;-45
2023/08/07 08:29:30;;;;;;;9.60;2.83;;;16.90;65.50;;;;;;5072752;28;20428;-45
2023/08/07 08:31:59;;;;;;;11.77;2.88;;;17.20;65.70;;;;;;5073539;28;20028;-47
2023/08/07 08:34:27;;;;;;;9.82;3.85;;;17.40;66.80;;;;;;5055771;28;20043;-46
2023/08/07 08:36:56;;;;;;;11.35;2.45;;;17.60;65.40;;;;;;5072433;28;20143;-46
2023/08/07 08:39:23;;;;;;;11.23;4.32;;;17.20;65.40;;;;;;5072712;28;20087;-46
2023/08/07 08:41:53;;;;;;;6.22;2.40;;;17.50;67.40;;;;;;5073023;28;20448;-49
2023/08/07 08:44:24;;;;;;;11.15;3.03;;;17.60;67.10;;;;;;5072599;28;20445;-46
2023/08/07 08:46:53;;;;;;;10.02;3.40;;;17.20;67.10;;;;;;5073354;28;20084;-46
2023/08/07 08:49:28;;;;;;;12.57;3.30;;;17.40;67.00;;;;;;5073426;28;20020;-46
2023/08/07 08:51:55;;;;;;;8.18;2.22;;;17.80;65.50;;;;;;5055254;28;20033;-47
2023/08/07 08:54:22;;;;;;;14.35;3.17;;;17.90;64.00;;;;;;5051062;28;20021;-49
2023/08/07 08:56:50;;;;;;;9.48;2.08;;;18.00;65.90;;;;;;5052901;28;20075;-46
2023/08/07 08:59:18;;;;;;;8.25;2.95;;;18.00;65.30;;;;;;5066837;28;20059;-47
2023/08/07 09:01:46;;;;;;;11.98;2.53;;;17.50;67.30;;;;;;5072956;28;20024;-46
2023/08/07 09:04:14;;;;;;;14.95;3.47;;;17.00;68.00;;;;;;5071982;28;20037;-46
2023/08/07 09:06:41;;;;;;;9.27;2.65;;;16.80;69.40;;;;;;5072838;28;20032;-47
2023/08/07 09:09:15;;;;;;;11.73;3.22;;;16.70;70.10;;;;;;5072788;28;20122;-46
2023/08/07 09:11:42;;;;;;;12.27;3.00;;;16.60;69.60;;;;;;5054162;28;20036;-46
2023/08/07 09:14:12;;;;;;;14.10;3.22;;;16.60;70.50;;;;;;5072737;28;20064;-46
2023/08/07 09:16:39;;;;;;;9.40;3.55;;;17.00;69.60;;;;;;5072871;28;20484;-47
2023/08/07 09:19:06;;;;;;;9.43;2.78;;;17.50;68.30;;;;;;5072651;28;20029;-48
2023/08/07 09:21:34;;;;;;;13.02;3.83;;;17.90;66.00;;;;;;5054899;28;20499;-45
2023/08/07 09:24:02;;;;;;;11.88;3.15;;;18.30;63.90;;;;;;5072486;28;20131;-47
2023/08/07 09:26:32;;;;;;;13.63;3.28;;;18.10;64.70;;;;;;5071980;28;20016;-48
2023/08/07 09:28:59;;;;;;;8.10;2.70;;;17.80;63.50;;;;;;5072807;28;20044;-46
2023/08/07 09:31:30;;;;;;;13.70;2.72;;;17.70;65.00;;;;;;5072023;28;20016;-47
2023/08/07 09:34:06;;;;;;;22.02;3.13;;;17.90;66.30;;;;;;5072607;28;20404;-48
2023/08/07 09:36:34;;;;;;;8.77;3.05;;;17.80;65.80;;;;;;5071800;28;20056;-48
2023/08/07 09:39:04;;;;;;;9.10;2.75;;;17.60;65.00;;;;;;5072588;28;20412;-47
2023/08/07 09:41:34;;;;;;;11.00;3.40;;;17.60;66.20;;;;;;5072355;28;20341;-46
2023/08/07 09:44:10;;;;;;;9.07;3.78;;;17.40;67.20;;;;;;5072034;28;20485;-46
2023/08/07 09:46:43;;;;;;;14.07;3.78;;;17.40;66.50;;;;;;5054960;28;20029;-46
2023/08/07 09:49:10;;;;;;;9.82;2.80;;;17.30;66.60;;;;;;5054698;28;20417;-45
2023/08/07 09:51:47;;;;;;;6.13;2.83;;;17.30;67.20;;;;;;5074393;28;20087;-47
2023/08/07 09:54:14;;;;;;;11.88;4.13;;;17.40;67.30;;;;;;5076422;28;20445;-47
2023/08/07 09:56:47;;;;;;;7.60;2.30;;;17.40;67.90;;;;;;5058048;28;20441;-48
2023/08/07 09:59:14;;;;;;;8.60;2.53;;;17.40;67.70;;;;;;5076381;28;20310;-46
2023/08/07 10:01:44;;;;;;;7.95;3.20;;;17.50;67.80;;;;;;5058026;28;20043;-46
2023/08/07 10:04:15;;;;;;;;;;;17.60;68.10;;;;;;5076553;28;20025;-45
2023/08/07 10:06:43;;;;;;;12.00;3.42;;;17.70;67.90;;;;;;5076275;28;19932;-46
2023/08/07 10:09:14;;;;;;;10.77;2.90;;;17.50;67.80;;;;;;5056991;28;20149;-48
2023/08/07 10:11:42;;;;;;;8.27;2.50;;;17.60;67.40;;;;;;5074785;28;20032;-46
2023/08/07 10:14:09;;;;;;;15.40;4.07;;;17.60;66.70;;;;;;5075709;28;20107;-46
2023/08/07 10:16:39;;;;;;;12.85;3.47;;;17.60;66.90;;;;;;5075741;28;20029;-45
2023/08/07 10:19:07;;;;;;;10.23;2.78;;;17.60;66.40;;;;;;5076027;28;20028;-48
2023/08/07 10:21:40;;;;;;;13.38;3.45;;;17.50;66.70;;;;;;5075173;28;20028;-46
2023/08/07 10:24:09;;;;;;;17.83;4.15;;;17.70;65.90;;;;;;5075756;28;20425;-46
2023/08/07 10:26:38;;;;;;;9.73;3.03;;;17.80;64.90;;;;;;5058112;28;20043;-47
2023/08/07 10:29:13;;;;;;;13.15;3.08;;;18.10;64.80;;;;;;5058260;28;20135;-46
2023/08/07 10:31:44;;;;;;;10.45;3.60;;;18.00;65.10;;;;;;5075488;28;20028;-46
2023/08/07 10:34:11;;;;;;;10.55;3.30;;;18.00;65.80;;;;;;5074864;28;20035;-46
2023/08/07 10:36:40;;;;;;;11.80;3.42;;;17.60;64.40;;;;;;5057620;28;20060;-46
2023/08/07 10:39:09;;;;;;;9.32;2.63;;;17.60;65.80;;;;;;5074595;28;20016;-46
2023/08/07 10:41:48;;;;;;;9.60;3.47;;;17.40;67.10;;;;;;5037096;28;20167;-45
2023/08/07 10:44:23;;;;;;;8.43;3.13;;;17.50;67.40;;;;;;5054848;28;20088;-46
2023/08/07 10:46:50;;;;;;;18.50;4.93;;;17.60;65.00;;;;;;5059884;28;20433;-45
2023/08/07 10:49:35;;;;;;;8.45;2.85;;;17.70;65.10;;;;;;5075733;28;20404;-46
2023/08/07 10:52:16;;;;;;;8.20;3.08;;;17.60;63.60;;;;;;5057703;28;20021;-46
2023/08/07 10:54:51;;;;;;;10.00;3.22;;;17.60;64.40;;;;;;5075277;28;20036;-46
2023/08/07 10:57:21;;;;;;;10.98;2.88;;;18.00;64.40;;;;;;5074610;28;20361;-47
2023/08/07 10:59:55;;;;;;;;;;;18.30;61.00;;;;;;5075571;28;20052;-48
2023/08/07 11:02:28;;;;;;;8.80;2.10;;;18.30;60.90;;;;;;5055611;28;19977;-45
2023/08/07 11:04:56;;;;;;;6.45;3.38;;;18.30;58.80;;;;;;5075009;28;20029;-47
2023/08/07 11:07:31;;;;;;;6.05;2.80;;;18.70;57.80;;;;;;5075277;28;20048;-45
2023/08/07 11:09:59;;;;;;;9.80;2.33;;;18.40;57.90;;;;;;5075046;28;20048;-46
2023/08/07 11:12:29;;;;;;;8.90;2.25;;;18.10;60.40;;;;;;5074431;28;20368;-45
2023/08/07 11:14:58;;;;;;;10.45;2.45;;;18.30;60.20;;;;;;5075492;28;20087;-46
2023/08/07 11:17:26;;;;;;;9.10;2.67;;;18.40;62.90;;;;;;5037324;28;20037;-45
2023/08/07 11:19:59;;;;;;;8.55;2.60;;;18.60;64.10;;;;;;5055118;28;20032;-47
2023/08/07 11:22:25;;;;;;;11.30;3.95;;;18.40;64.40;;;;;;5054341;28;20120;-49
2023/08/07 11:24:54;;;;;;;10.25;2.38;;;18.30;65.70;;;;;;5054716;28;20498;-45
2023/08/07 11:27:22;;;;;;;9.07;2.50;;;17.90;66.40;;;;;;5074645;28;20508;-46
2023/08/07 11:29:52;;;;;;;7.05;1.85;;;17.70;67.20;;;;;;5073746;28;20504;-45
2023/08/07 11:32:21;;;;;;;14.07;2.72;;;17.60;68.70;;;;;;5074574;28;20035;-46
2023/08/07 11:34:51;;;;;;;;;;;17.30;70.60;;;;;;5056145;28;20044;-46
2023/08/07 11:37:19;;;;;;;4.93;2.30;;;17.50;70.70;;;;;;5074600;28;19911;-46
2023/08/07 11:39:45;;;;;;;7.35;2.50;;;17.30;69.80;;;;;;5074467;28;20040;-45
2023/08/07 11:42:11;;;;;;;10.80;2.28;;;17.40;69.20;;;;;;5056451;28;20465;-47
2023/08/07 11:44:40;;;;;;;6.55;1.92;;;17.50;70.30;;;;;;5076358;28;20056;-46
2023/08/07 11:47:09;;;;;;;8.65;2.30;;;17.60;68.30;;;;;;5056510;28;20036;-47
2023/08/07 11:49:37;;;;;;;9.10;2.53;;;17.50;68.10;;;;;;5074658;28;20162;-46
2023/08/07 11:52:04;;;;;;;8.60;2.55;;;17.60;68.30;;;;;;5073648;28;20020;-46
2023/08/07 11:54:29;;;;;;;10.68;3.72;;;17.60;68.00;;;;;;5056713;28;20025;-45
2023/08/07 11:56:57;;;;;;;10.15;3.97;;;17.60;67.50;;;;;;5074083;28;20315;-46
2023/08/07 11:59:26;;;;;;;15.48;3.28;;;17.60;69.00;;;;;;5055757;28;20025;-46
2023/08/07 12:01:52;;;;;;;11.43;3.22;;;17.50;69.10;;;;;;5074052;28;20021;-48
2023/08/07 12:04:19;;;;;;;5.60;2.53;;;17.60;67.90;;;;;;5073975;28;20031;-46
2023/08/07 12:06:56;;;;;;;11.38;2.97;;;17.40;66.20;;;;;;5073499;28;20036;-46
2023/08/07 12:09:25;;;;;;;13.27;4.32;;;17.40;66.40;;;;;;5056257;28;20096;-46
2023/08/07 12:12:01;;;;;;;12.63;3.63;;;17.50;67.50;;;;;;5073970;28;20025;-48
2023/08/07 12:14:35;;;;;;;11.00;3.78;;;17.50;65.90;;;;;;5052836;28;20542;-48
2023/08/07 12:17:04;;;;;;;14.50;4.25;;;17.50;65.30;;;;;;5053867;28;20052;-46
2023/08/07 12:19:45;;;;;;;16.45;4.10;;;17.60;66.00;;;;;;5036530;28;20028;-47
2023/08/07 12:22:11;;;;;;;11.32;3.90;;;17.60;67.80;;;;;;5056801;28;20385;-46
2023/08/07 12:24:41;;;;;;;10.55;3.42;;;17.60;67.70;;;;;;5073570;28;20025;-46
2023/08/07 12:27:08;;;;;;;13.00;3.40;;;17.50;66.90;;;;;;5073612;28;20013;-46
2023/08/07 12:29:35;;;;;;;9.35;2.72;;;17.70;68.80;;;;;;5072673;28;20028;-46
2023/08/07 12:32:02;;;;;;;11.60;3.08;;;17.80;66.10;;;;;;5072895;28;20030;-46
2023/08/07 12:34:28;;;;;;;9.80;3.80;;;17.60;63.20;;;;;;5073297;28;20416;-47
2023/08/07 12:36:57;;;;;;;8.95;2.90;;;17.50;62.80;;;;;;5055500;28;20132;-46
2023/08/07 12:39:24;;;;;;;11.50;2.90;;;17.80;63.60;;;;;;5072902;28;20032;-46
2023/08/07 12:41:50;;;;;;;11.30;2.83;;;18.10;63.30;;;;;;5073235;28;20099;-46
2023/08/07 12:44:17;;;;;;;11.35;3.67;;;18.40;61.90;;;;;;5072958;28;20028;-49
2023/08/07 12:46:44;;;;;;;8.98;2.53;;;18.60;62.40;;;;;;5072606;28;20487;-45
2023/08/07 12:49:11;;;;;;;10.07;2.60;;;18.60;59.20;;;;;;5055554;28;20031;-46
2023/08/07 12:51:36;;;;;;;8.13;2.92;;;18.60;59.80;;;;;;5054600;28;20026;-46